sensor_id;sensor_type;location;lat;lon;timestamp;P1;durP1;ratioP1;P2;durP2;ratioP2
54360;SDS011;40258;53.936;27.540;2022-11-11T00:00:32;32.05;;;19.67;;
54360;SDS011;40258;53.936;27.540;2022-11-11T00:06:08;33.55;;;19.25;;
54360;SDS011;40258;53.936;27.540;2022-11-11T00:08:55;29.33;;;18.70;;
54360;SDS011;40258;53.936;27.540;2022-11-11T00:11:41;33.15;;;17.90;;
54360;SDS011;40258;53.936;27.540;2022-11-11T00:14:29;34.43;;;18.80;;
54360;SDS011;40258;53.936;27.540;2022-11-11T00:17:16;30.77;;;17.38;;
54360;SDS011;40258;53.936;27.540;2022-11-11T00:20:20;34.88;;;19.23;;
54360;SDS011;40258;53.936;27.540;2022-11-11T00:23:24;32.47;;;17.95;;
54360;SDS011;40258;53.936;27.540;2022-11-11T00:26:29;33.80;;;18.95;;
54360;SDS011;40258;53.936;27.540;2022-11-11T00:29:16;30.73;;;17.80;;
54360;SDS011;40258;53.936;27.540;2022-11-11T00:35:10;30.38;;;18.50;;
54360;SDS011;40258;53.936;27.540;2022-11-11T00:38:14;31.15;;;16.33;;
54360;SDS011;40258;53.936;27.540;2022-11-11T00:41:21;29.70;;;17.45;;
54360;SDS011;40258;53.936;27.540;2022-11-11T00:44:09;31.95;;;17.55;;
54360;SDS011;40258;53.936;27.540;2022-11-11T00:46:55;26.77;;;17.15;;
54360;SDS011;40258;53.936;27.540;2022-11-11T00:50:01;29.65;;;16.15;;
54360;SDS011;40258;53.936;27.540;2022-11-11T00:53:07;28.77;;;16.88;;
54360;SDS011;40258;53.936;27.540;2022-11-11T00:55:55;30.50;;;16.63;;
54360;SDS011;40258;53.936;27.540;2022-11-11T01:01:28;27.88;;;16.90;;
54360;SDS011;40258;53.936;27.540;2022-11-11T01:04:14;27.20;;;15.90;;
54360;SDS011;40258;53.936;27.540;2022-11-11T01:07:02;29.95;;;17.08;;
54360;SDS011;40258;53.936;27.540;2022-11-11T01:09:49;26.95;;;15.77;;
54360;SDS011;40258;53.936;27.540;2022-11-11T01:12:35;29.50;;;16.03;;
54360;SDS011;40258;53.936;27.540;2022-11-11T01:15:22;26.90;;;16.15;;
54360;SDS011;40258;53.936;27.540;2022-11-11T01:18:09;28.17;;;16.27;;
54360;SDS011;40258;53.936;27.540;2022-11-11T01:20:57;27.52;;;15.75;;
54360;SDS011;40258;53.936;27.540;2022-11-11T01:23:46;26.30;;;14.60;;
54360;SDS011;40258;53.936;27.540;2022-11-11T01:26:33;26.75;;;15.45;;
54360;SDS011;40258;53.936;27.540;2022-11-11T01:29:19;27.67;;;14.77;;
54360;SDS011;40258;53.936;27.540;2022-11-11T01:32:06;30.93;;;15.97;;
54360;SDS011;40258;53.936;27.540;2022-11-11T01:34:52;28.08;;;16.35;;
54360;SDS011;40258;53.936;27.540;2022-11-11T01:37:39;27.02;;;14.60;;
54360;SDS011;40258;53.936;27.540;2022-11-11T01:40:27;25.90;;;15.67;;
54360;SDS011;40258;53.936;27.540;2022-11-11T01:43:14;24.20;;;14.75;;
54360;SDS011;40258;53.936;27.540;2022-11-11T01:46:03;23.33;;;14.57;;
54360;SDS011;40258;53.936;27.540;2022-11-11T01:48:51;27.23;;;14.27;;
54360;SDS011;40258;53.936;27.540;2022-11-11T01:51:59;23.60;;;13.48;;
54360;SDS011;40258;53.936;27.540;2022-11-11T01:54:49;25.23;;;12.55;;
54360;SDS011;40258;53.936;27.540;2022-11-11T01:57:39;21.23;;;12.93;;
54360;SDS011;40258;53.936;27.540;2022-11-11T02:00:28;19.08;;;11.27;;
54360;SDS011;40258;53.936;27.540;2022-11-11T02:03:14;18.02;;;11.10;;
54360;SDS011;40258;53.936;27.540;2022-11-11T02:06:02;16.55;;;11.00;;
54360;SDS011;40258;53.936;27.540;2022-11-11T02:08:48;18.73;;;10.00;;
54360;SDS011;40258;53.936;27.540;2022-11-11T02:11:34;14.30;;;9.38;;
54360;SDS011;40258;53.936;27.540;2022-11-11T02:14:41;16.63;;;10.43;;
54360;SDS011;40258;53.936;27.540;2022-11-11T02:17:30;16.30;;;10.30;;
54360;SDS011;40258;53.936;27.540;2022-11-11T02:20:18;16.08;;;10.02;;
54360;SDS011;40258;53.936;27.540;2022-11-11T02:23:08;15.40;;;8.25;;
54360;SDS011;40258;53.936;27.540;2022-11-11T02:25:57;15.85;;;9.50;;
54360;SDS011;40258;53.936;27.540;2022-11-11T02:28:46;14.75;;;9.48;;
54360;SDS011;40258;53.936;27.540;2022-11-11T02:31:32;15.83;;;9.27;;
54360;SDS011;40258;53.936;27.540;2022-11-11T02:34:19;14.80;;;9.43;;
54360;SDS011;40258;53.936;27.540;2022-11-11T02:37:06;15.75;;;9.85;;
54360;SDS011;40258;53.936;27.540;2022-11-11T02:39:55;13.48;;;8.52;;
54360;SDS011;40258;53.936;27.540;2022-11-11T02:42:44;13.75;;;9.30;;
54360;SDS011;40258;53.936;27.540;2022-11-11T02:45:31;15.45;;;9.32;;
54360;SDS011;40258;53.936;27.540;2022-11-11T02:48:17;16.65;;;9.05;;
54360;SDS011;40258;53.936;27.540;2022-11-11T02:51:04;19.07;;;8.37;;
54360;SDS011;40258;53.936;27.540;2022-11-11T02:53:51;16.23;;;9.25;;
54360;SDS011;40258;53.936;27.540;2022-11-11T02:56:41;16.88;;;9.23;;
54360;SDS011;40258;53.936;27.540;2022-11-11T02:59:47;17.10;;;8.55;;
54360;SDS011;40258;53.936;27.540;2022-11-11T03:02:34;13.68;;;8.07;;
54360;SDS011;40258;53.936;27.540;2022-11-11T03:05:20;13.32;;;8.15;;
54360;SDS011;40258;53.936;27.540;2022-11-11T03:08:07;18.03;;;8.10;;
54360;SDS011;40258;53.936;27.540;2022-11-11T03:10:53;15.15;;;7.97;;
54360;SDS011;40258;53.936;27.540;2022-11-11T03:13:40;12.73;;;7.40;;
54360;SDS011;40258;53.936;27.540;2022-11-11T03:16:28;14.07;;;8.13;;
54360;SDS011;40258;53.936;27.540;2022-11-11T03:19:28;15.38;;;7.45;;
54360;SDS011;40258;53.936;27.540;2022-11-11T03:22:15;15.43;;;7.50;;
54360;SDS011;40258;53.936;27.540;2022-11-11T03:25:02;13.23;;;6.80;;
54360;SDS011;40258;53.936;27.540;2022-11-11T03:28:06;11.93;;;6.90;;
54360;SDS011;40258;53.936;27.540;2022-11-11T03:30:54;12.38;;;7.20;;
54360;SDS011;40258;53.936;27.540;2022-11-11T03:33:43;10.57;;;7.15;;
54360;SDS011;40258;53.936;27.540;2022-11-11T03:36:30;13.63;;;6.68;;
54360;SDS011;40258;53.936;27.540;2022-11-11T03:39:30;10.60;;;6.13;;
54360;SDS011;40258;53.936;27.540;2022-11-11T03:42:17;10.93;;;5.93;;
54360;SDS011;40258;53.936;27.540;2022-11-11T03:45:03;10.15;;;6.82;;
54360;SDS011;40258;53.936;27.540;2022-11-11T03:47:50;16.03;;;7.53;;
54360;SDS011;40258;53.936;27.540;2022-11-11T03:50:39;10.77;;;6.65;;
54360;SDS011;40258;53.936;27.540;2022-11-11T03:53:26;11.30;;;6.50;;
54360;SDS011;40258;53.936;27.540;2022-11-11T03:56:13;10.77;;;5.30;;
54360;SDS011;40258;53.936;27.540;2022-11-11T03:59:00;11.50;;;6.10;;
54360;SDS011;40258;53.936;27.540;2022-11-11T04:01:46;14.73;;;6.37;;
54360;SDS011;40258;53.936;27.540;2022-11-11T04:04:50;10.15;;;5.63;;
54360;SDS011;40258;53.936;27.540;2022-11-11T04:07:56;13.85;;;6.80;;
54360;SDS011;40258;53.936;27.540;2022-11-11T04:11:01;17.17;;;7.00;;
54360;SDS011;40258;53.936;27.540;2022-11-11T04:13:50;13.65;;;6.35;;
54360;SDS011;40258;53.936;27.540;2022-11-11T04:16:54;9.90;;;5.65;;
54360;SDS011;40258;53.936;27.540;2022-11-11T04:19:40;9.82;;;5.72;;
54360;SDS011;40258;53.936;27.540;2022-11-11T04:22:45;11.05;;;6.18;;
54360;SDS011;40258;53.936;27.540;2022-11-11T04:25:33;11.23;;;5.55;;
54360;SDS011;40258;53.936;27.540;2022-11-11T04:28:39;10.05;;;5.22;;
54360;SDS011;40258;53.936;27.540;2022-11-11T04:31:44;10.20;;;5.90;;
54360;SDS011;40258;53.936;27.540;2022-11-11T04:34:44;9.52;;;5.80;;
54360;SDS011;40258;53.936;27.540;2022-11-11T04:37:31;10.48;;;5.18;;
54360;SDS011;40258;53.936;27.540;2022-11-11T04:40:19;11.43;;;4.72;;
54360;SDS011;40258;53.936;27.540;2022-11-11T04:43:24;11.90;;;4.97;;
54360;SDS011;40258;53.936;27.540;2022-11-11T04:46:11;12.50;;;5.05;;
54360;SDS011;40258;53.936;27.540;2022-11-11T04:48:56;9.23;;;4.80;;
54360;SDS011;40258;53.936;27.540;2022-11-11T04:51:42;11.85;;;4.97;;
54360;SDS011;40258;53.936;27.540;2022-11-11T04:54:47;12.95;;;5.40;;
54360;SDS011;40258;53.936;27.540;2022-11-11T04:57:50;9.32;;;4.40;;
54360;SDS011;40258;53.936;27.540;2022-11-11T05:00:40;12.68;;;4.47;;
54360;SDS011;40258;53.936;27.540;2022-11-11T05:03:27;13.32;;;4.75;;
54360;SDS011;40258;53.936;27.540;2022-11-11T05:06:12;11.95;;;5.03;;
54360;SDS011;40258;53.936;27.540;2022-11-11T05:09:17;13.65;;;5.55;;
54360;SDS011;40258;53.936;27.540;2022-11-11T05:12:03;12.80;;;5.22;;
54360;SDS011;40258;53.936;27.540;2022-11-11T05:14:50;14.68;;;5.05;;
54360;SDS011;40258;53.936;27.540;2022-11-11T05:17:56;11.23;;;4.28;;
54360;SDS011;40258;53.936;27.540;2022-11-11T05:20:58;16.92;;;5.68;;
54360;SDS011;40258;53.936;27.540;2022-11-11T05:24:03;13.48;;;4.05;;
54360;SDS011;40258;53.936;27.540;2022-11-11T05:27:07;14.30;;;4.93;;
54360;SDS011;40258;53.936;27.540;2022-11-11T05:29:54;12.73;;;4.75;;
54360;SDS011;40258;53.936;27.540;2022-11-11T05:32:40;15.17;;;4.47;;
54360;SDS011;40258;53.936;27.540;2022-11-11T05:35:29;11.20;;;4.90;;
54360;SDS011;40258;53.936;27.540;2022-11-11T05:38:15;13.73;;;4.50;;
54360;SDS011;40258;53.936;27.540;2022-11-11T05:41:05;10.30;;;4.07;;
54360;SDS011;40258;53.936;27.540;2022-11-11T05:43:51;11.98;;;4.00;;
54360;SDS011;40258;53.936;27.540;2022-11-11T05:46:38;10.30;;;4.13;;
54360;SDS011;40258;53.936;27.540;2022-11-11T05:49:24;13.55;;;4.35;;
54360;SDS011;40258;53.936;27.540;2022-11-11T05:52:13;12.70;;;5.07;;
54360;SDS011;40258;53.936;27.540;2022-11-11T05:55:00;14.02;;;4.47;;
54360;SDS011;40258;53.936;27.540;2022-11-11T05:57:46;13.52;;;4.95;;
54360;SDS011;40258;53.936;27.540;2022-11-11T06:00:33;13.10;;;4.60;;
54360;SDS011;40258;53.936;27.540;2022-11-11T06:03:20;15.57;;;5.17;;
54360;SDS011;40258;53.936;27.540;2022-11-11T06:06:08;13.60;;;4.45;;
54360;SDS011;40258;53.936;27.540;2022-11-11T06:08:56;17.50;;;4.97;;
54360;SDS011;40258;53.936;27.540;2022-11-11T06:11:42;13.02;;;3.85;;
54360;SDS011;40258;53.936;27.540;2022-11-11T06:14:28;14.50;;;4.07;;
54360;SDS011;40258;53.936;27.540;2022-11-11T06:17:15;15.37;;;5.17;;
54360;SDS011;40258;53.936;27.540;2022-11-11T06:20:01;18.77;;;4.13;;
54360;SDS011;40258;53.936;27.540;2022-11-11T06:22:48;16.10;;;5.32;;
54360;SDS011;40258;53.936;27.540;2022-11-11T06:25:42;15.07;;;4.82;;
54360;SDS011;40258;53.936;27.540;2022-11-11T06:28:47;13.45;;;4.25;;
54360;SDS011;40258;53.936;27.540;2022-11-11T06:31:34;13.50;;;4.80;;
54360;SDS011;40258;53.936;27.540;2022-11-11T06:34:21;12.43;;;3.97;;
54360;SDS011;40258;53.936;27.540;2022-11-11T06:37:07;10.55;;;3.60;;
54360;SDS011;40258;53.936;27.540;2022-11-11T06:39:54;12.20;;;3.80;;
54360;SDS011;40258;53.936;27.540;2022-11-11T06:42:42;18.80;;;4.68;;
54360;SDS011;40258;53.936;27.540;2022-11-11T06:45:29;15.70;;;5.20;;
54360;SDS011;40258;53.936;27.540;2022-11-11T06:48:16;14.50;;;4.18;;
54360;SDS011;40258;53.936;27.540;2022-11-11T06:51:04;15.67;;;4.87;;
54360;SDS011;40258;53.936;27.540;2022-11-11T06:53:51;14.02;;;4.10;;
54360;SDS011;40258;53.936;27.540;2022-11-11T06:56:37;14.05;;;4.28;;
54360;SDS011;40258;53.936;27.540;2022-11-11T06:59:25;17.03;;;4.80;;
54360;SDS011;40258;53.936;27.540;2022-11-11T07:04:58;13.50;;;4.07;;
54360;SDS011;40258;53.936;27.540;2022-11-11T07:07:44;11.45;;;4.07;;
54360;SDS011;40258;53.936;27.540;2022-11-11T07:10:31;11.83;;;3.70;;
54360;SDS011;40258;53.936;27.540;2022-11-11T07:13:18;13.95;;;4.45;;
54360;SDS011;40258;53.936;27.540;2022-11-11T07:16:06;10.25;;;3.97;;
54360;SDS011;40258;53.936;27.540;2022-11-11T07:18:55;14.38;;;4.43;;
54360;SDS011;40258;53.936;27.540;2022-11-11T07:21:41;22.50;;;5.20;;
54360;SDS011;40258;53.936;27.540;2022-11-11T07:24:28;15.85;;;4.57;;
54360;SDS011;40258;53.936;27.540;2022-11-11T07:27:14;11.27;;;4.77;;
54360;SDS011;40258;53.936;27.540;2022-11-11T07:30:01;11.97;;;3.70;;
54360;SDS011;40258;53.936;27.540;2022-11-11T07:32:50;19.05;;;4.32;;
54360;SDS011;40258;53.936;27.540;2022-11-11T07:35:37;14.02;;;4.70;;
54360;SDS011;40258;53.936;27.540;2022-11-11T07:38:24;9.23;;;4.00;;
54360;SDS011;40258;53.936;27.540;2022-11-11T07:41:10;12.75;;;3.78;;
54360;SDS011;40258;53.936;27.540;2022-11-11T07:43:56;12.48;;;4.38;;
54360;SDS011;40258;53.936;27.540;2022-11-11T07:46:43;10.20;;;4.47;;
54360;SDS011;40258;53.936;27.540;2022-11-11T07:49:31;12.88;;;4.60;;
54360;SDS011;40258;53.936;27.540;2022-11-11T07:52:17;11.23;;;4.40;;
54360;SDS011;40258;53.936;27.540;2022-11-11T07:55:04;9.75;;;3.65;;
54360;SDS011;40258;53.936;27.540;2022-11-11T07:57:51;11.00;;;4.63;;
54360;SDS011;40258;53.936;27.540;2022-11-11T08:00:38;10.80;;;4.40;;
54360;SDS011;40258;53.936;27.540;2022-11-11T08:03:25;10.15;;;4.38;;
54360;SDS011;40258;53.936;27.540;2022-11-11T08:06:13;17.33;;;4.65;;
54360;SDS011;40258;53.936;27.540;2022-11-11T08:09:00;13.63;;;4.03;;
54360;SDS011;40258;53.936;27.540;2022-11-11T08:11:47;11.77;;;3.80;;
54360;SDS011;40258;53.936;27.540;2022-11-11T08:14:51;13.82;;;4.30;;
54360;SDS011;40258;53.936;27.540;2022-11-11T08:17:37;7.97;;;3.40;;
54360;SDS011;40258;53.936;27.540;2022-11-11T08:20:24;7.93;;;3.30;;
54360;SDS011;40258;53.936;27.540;2022-11-11T08:23:12;14.60;;;3.97;;
54360;SDS011;40258;53.936;27.540;2022-11-11T08:26:05;12.48;;;3.63;;
54360;SDS011;40258;53.936;27.540;2022-11-11T08:28:51;14.17;;;3.97;;
54360;SDS011;40258;53.936;27.540;2022-11-11T08:31:38;13.90;;;3.77;;
54360;SDS011;40258;53.936;27.540;2022-11-11T08:34:24;8.50;;;3.45;;
54360;SDS011;40258;53.936;27.540;2022-11-11T08:37:11;10.05;;;3.25;;
54360;SDS011;40258;53.936;27.540;2022-11-11T08:40:06;8.63;;;2.90;;
54360;SDS011;40258;53.936;27.540;2022-11-11T08:42:54;11.55;;;3.50;;
54360;SDS011;40258;53.936;27.540;2022-11-11T08:45:42;7.28;;;2.97;;
54360;SDS011;40258;53.936;27.540;2022-11-11T08:48:30;8.05;;;3.00;;
54360;SDS011;40258;53.936;27.540;2022-11-11T08:51:17;9.27;;;3.05;;
54360;SDS011;40258;53.936;27.540;2022-11-11T08:54:04;6.75;;;2.67;;
54360;SDS011;40258;53.936;27.540;2022-11-11T08:56:54;5.97;;;2.65;;
54360;SDS011;40258;53.936;27.540;2022-11-11T08:59:40;8.75;;;2.67;;
54360;SDS011;40258;53.936;27.540;2022-11-11T09:02:28;8.50;;;3.22;;
54360;SDS011;40258;53.936;27.540;2022-11-11T09:05:15;9.50;;;4.07;;
54360;SDS011;40258;53.936;27.540;2022-11-11T09:08:02;8.43;;;2.75;;
54360;SDS011;40258;53.936;27.540;2022-11-11T09:10:51;9.50;;;3.28;;
54360;SDS011;40258;53.936;27.540;2022-11-11T09:13:40;8.20;;;2.58;;
54360;SDS011;40258;53.936;27.540;2022-11-11T09:16:27;11.25;;;3.13;;
54360;SDS011;40258;53.936;27.540;2022-11-11T09:19:14;8.93;;;3.20;;
54360;SDS011;40258;53.936;27.540;2022-11-11T09:22:01;9.70;;;3.28;;
54360;SDS011;40258;53.936;27.540;2022-11-11T09:24:48;8.70;;;3.40;;
54360;SDS011;40258;53.936;27.540;2022-11-11T09:27:35;6.65;;;2.92;;
54360;SDS011;40258;53.936;27.540;2022-11-11T09:33:12;9.27;;;3.58;;
54360;SDS011;40258;53.936;27.540;2022-11-11T09:36:02;10.20;;;3.35;;
54360;SDS011;40258;53.936;27.540;2022-11-11T09:38:49;7.28;;;2.95;;
54360;SDS011;40258;53.936;27.540;2022-11-11T09:41:39;9.65;;;3.40;;
54360;SDS011;40258;53.936;27.540;2022-11-11T09:44:44;11.30;;;3.50;;
54360;SDS011;40258;53.936;27.540;2022-11-11T09:47:58;8.32;;;3.38;;
54360;SDS011;40258;53.936;27.540;2022-11-11T09:50:56;7.53;;;3.13;;
54360;SDS011;40258;53.936;27.540;2022-11-11T09:53:47;7.63;;;3.20;;
54360;SDS011;40258;53.936;27.540;2022-11-11T09:56:39;9.68;;;4.30;;
54360;SDS011;40258;53.936;27.540;2022-11-11T10:02:19;9.43;;;3.53;;
54360;SDS011;40258;53.936;27.540;2022-11-11T10:05:21;13.40;;;4.05;;
54360;SDS011;40258;53.936;27.540;2022-11-11T10:08:14;9.60;;;3.55;;
54360;SDS011;40258;53.936;27.540;2022-11-11T10:11:10;7.03;;;3.67;;
54360;SDS011;40258;53.936;27.540;2022-11-11T10:14:01;7.70;;;3.33;;
54360;SDS011;40258;53.936;27.540;2022-11-11T10:19:46;11.32;;;3.58;;
54360;SDS011;40258;53.936;27.540;2022-11-11T10:22:45;9.45;;;3.97;;
54360;SDS011;40258;53.936;27.540;2022-11-11T10:25:38;8.43;;;3.58;;
54360;SDS011;40258;53.936;27.540;2022-11-11T10:28:39;10.05;;;3.33;;
54360;SDS011;40258;53.936;27.540;2022-11-11T10:31:29;8.30;;;3.20;;
54360;SDS011;40258;53.936;27.540;2022-11-11T10:34:16;6.82;;;3.00;;
54360;SDS011;40258;53.936;27.540;2022-11-11T10:37:10;8.10;;;4.00;;
54360;SDS011;40258;53.936;27.540;2022-11-11T10:40:06;9.93;;;4.38;;
54360;SDS011;40258;53.936;27.540;2022-11-11T10:43:03;8.65;;;4.32;;
54360;SDS011;40258;53.936;27.540;2022-11-11T10:46:08;11.73;;;4.20;;
54360;SDS011;40258;53.936;27.540;2022-11-11T10:49:02;10.38;;;4.18;;
54360;SDS011;40258;53.936;27.540;2022-11-11T10:51:58;11.07;;;4.00;;
54360;SDS011;40258;53.936;27.540;2022-11-11T10:54:54;8.88;;;4.18;;
54360;SDS011;40258;53.936;27.540;2022-11-11T10:57:49;10.65;;;4.93;;
54360;SDS011;40258;53.936;27.540;2022-11-11T11:00:42;8.85;;;5.00;;
54360;SDS011;40258;53.936;27.540;2022-11-11T11:03:34;11.30;;;5.80;;
54360;SDS011;40258;53.936;27.540;2022-11-11T11:06:26;12.32;;;5.25;;
54360;SDS011;40258;53.936;27.540;2022-11-11T11:09:18;12.57;;;5.28;;
54360;SDS011;40258;53.936;27.540;2022-11-11T11:12:12;14.20;;;6.05;;
54360;SDS011;40258;53.936;27.540;2022-11-11T11:15:08;11.55;;;5.30;;
54360;SDS011;40258;53.936;27.540;2022-11-11T11:18:02;20.60;;;6.75;;
54360;SDS011;40258;53.936;27.540;2022-11-11T11:20:57;20.25;;;6.13;;
54360;SDS011;40258;53.936;27.540;2022-11-11T11:23:45;15.23;;;6.28;;
54360;SDS011;40258;53.936;27.540;2022-11-11T11:29:30;26.08;;;15.07;;
54360;SDS011;40258;53.936;27.540;2022-11-11T11:32:26;14.80;;;5.88;;
54360;SDS011;40258;53.936;27.540;2022-11-11T11:35:28;14.88;;;9.35;;
54360;SDS011;40258;53.936;27.540;2022-11-11T11:38:25;12.60;;;6.70;;
54360;SDS011;40258;53.936;27.540;2022-11-11T11:44:36;13.38;;;6.53;;
54360;SDS011;40258;53.936;27.540;2022-11-11T11:47:28;11.95;;;5.43;;
54360;SDS011;40258;53.936;27.540;2022-11-11T11:50:35;12.68;;;5.63;;
54360;SDS011;40258;53.936;27.540;2022-11-11T11:53:34;13.50;;;5.95;;
54360;SDS011;40258;53.936;27.540;2022-11-11T11:56:36;11.57;;;5.30;;
54360;SDS011;40258;53.936;27.540;2022-11-11T11:59:27;11.50;;;5.47;;
54360;SDS011;40258;53.936;27.540;2022-11-11T12:02:30;11.80;;;6.60;;
54360;SDS011;40258;53.936;27.540;2022-11-11T12:05:36;12.32;;;5.57;;
54360;SDS011;40258;53.936;27.540;2022-11-11T12:08:36;13.02;;;5.40;;
54360;SDS011;40258;53.936;27.540;2022-11-11T12:14:40;13.52;;;5.65;;
54360;SDS011;40258;53.936;27.540;2022-11-11T12:17:47;11.60;;;5.38;;
54360;SDS011;40258;53.936;27.540;2022-11-11T12:20:47;12.82;;;5.57;;
54360;SDS011;40258;53.936;27.540;2022-11-11T12:26:52;17.67;;;6.05;;
54360;SDS011;40258;53.936;27.540;2022-11-11T12:29:52;13.90;;;6.15;;
54360;SDS011;40258;53.936;27.540;2022-11-11T12:33:01;12.13;;;6.00;;
54360;SDS011;40258;53.936;27.540;2022-11-11T12:36:05;13.15;;;6.20;;
54360;SDS011;40258;53.936;27.540;2022-11-11T12:39:00;10.70;;;6.53;;
54360;SDS011;40258;53.936;27.540;2022-11-11T12:41:59;16.05;;;6.85;;
54360;SDS011;40258;53.936;27.540;2022-11-11T12:45:00;10.70;;;6.43;;
54360;SDS011;40258;53.936;27.540;2022-11-11T12:47:57;11.93;;;7.05;;
54360;SDS011;40258;53.936;27.540;2022-11-11T12:50:59;13.43;;;7.85;;
54360;SDS011;40258;53.936;27.540;2022-11-11T12:53:56;12.93;;;7.57;;
54360;SDS011;40258;53.936;27.540;2022-11-11T12:56:51;15.73;;;7.72;;
54360;SDS011;40258;53.936;27.540;2022-11-11T13:00:00;13.07;;;7.68;;
54360;SDS011;40258;53.936;27.540;2022-11-11T13:02:58;15.35;;;6.97;;
54360;SDS011;40258;53.936;27.540;2022-11-11T13:06:08;13.48;;;7.13;;
54360;SDS011;40258;53.936;27.540;2022-11-11T13:09:13;14.85;;;7.07;;
54360;SDS011;40258;53.936;27.540;2022-11-11T13:12:35;14.20;;;7.55;;
54360;SDS011;40258;53.936;27.540;2022-11-11T13:15:29;13.20;;;7.18;;
54360;SDS011;40258;53.936;27.540;2022-11-11T13:21:10;14.30;;;7.90;;
54360;SDS011;40258;53.936;27.540;2022-11-11T13:24:01;15.82;;;8.65;;
54360;SDS011;40258;53.936;27.540;2022-11-11T13:26:55;16.00;;;8.50;;
54360;SDS011;40258;53.936;27.540;2022-11-11T13:29:50;16.63;;;8.60;;
54360;SDS011;40258;53.936;27.540;2022-11-11T13:32:52;14.60;;;9.23;;
54360;SDS011;40258;53.936;27.540;2022-11-11T13:35:47;21.20;;;10.60;;
54360;SDS011;40258;53.936;27.540;2022-11-11T13:38:38;17.45;;;9.98;;
54360;SDS011;40258;53.936;27.540;2022-11-11T13:41:33;17.63;;;11.38;;
54360;SDS011;40258;53.936;27.540;2022-11-11T13:44:23;20.50;;;11.57;;
54360;SDS011;40258;53.936;27.540;2022-11-11T13:47:17;18.77;;;11.52;;
54360;SDS011;40258;53.936;27.540;2022-11-11T13:50:08;22.73;;;11.02;;
54360;SDS011;40258;53.936;27.540;2022-11-11T13:53:13;19.90;;;12.13;;
54360;SDS011;40258;53.936;27.540;2022-11-11T13:56:10;18.70;;;11.02;;
54360;SDS011;40258;53.936;27.540;2022-11-11T13:59:07;16.98;;;10.90;;
54360;SDS011;40258;53.936;27.540;2022-11-11T14:02:12;20.33;;;12.43;;
54360;SDS011;40258;53.936;27.540;2022-11-11T14:05:21;20.35;;;11.93;;
54360;SDS011;40258;53.936;27.540;2022-11-11T14:08:11;21.00;;;11.80;;
54360;SDS011;40258;53.936;27.540;2022-11-11T14:11:36;19.35;;;11.75;;
54360;SDS011;40258;53.936;27.540;2022-11-11T14:17:42;19.10;;;11.80;;
54360;SDS011;40258;53.936;27.540;2022-11-11T14:20:36;22.27;;;12.60;;
54360;SDS011;40258;53.936;27.540;2022-11-11T14:23:34;21.45;;;11.40;;
54360;SDS011;40258;53.936;27.540;2022-11-11T14:26:24;22.10;;;11.55;;
54360;SDS011;40258;53.936;27.540;2022-11-11T14:29:15;22.90;;;12.77;;
54360;SDS011;40258;53.936;27.540;2022-11-11T14:32:17;18.55;;;12.13;;
54360;SDS011;40258;53.936;27.540;2022-11-11T14:35:23;20.65;;;12.43;;
54360;SDS011;40258;53.936;27.540;2022-11-11T14:44:43;21.48;;;11.68;;
54360;SDS011;40258;53.936;27.540;2022-11-11T14:47:31;20.00;;;12.05;;
54360;SDS011;40258;53.936;27.540;2022-11-11T14:53:30;17.75;;;12.70;;
54360;SDS011;40258;53.936;27.540;2022-11-11T14:56:23;21.60;;;14.88;;
54360;SDS011;40258;53.936;27.540;2022-11-11T14:59:14;21.88;;;12.13;;
54360;SDS011;40258;53.936;27.540;2022-11-11T15:02:20;21.58;;;12.68;;
54360;SDS011;40258;53.936;27.540;2022-11-11T15:05:16;22.80;;;12.65;;
54360;SDS011;40258;53.936;27.540;2022-11-11T15:08:13;19.67;;;12.25;;
54360;SDS011;40258;53.936;27.540;2022-11-11T15:11:13;22.60;;;13.40;;
54360;SDS011;40258;53.936;27.540;2022-11-11T15:14:19;19.17;;;11.70;;
54360;SDS011;40258;53.936;27.540;2022-11-11T15:17:21;24.97;;;13.10;;
54360;SDS011;40258;53.936;27.540;2022-11-11T15:20:29;20.35;;;13.40;;
54360;SDS011;40258;53.936;27.540;2022-11-11T15:23:34;22.27;;;13.50;;
54360;SDS011;40258;53.936;27.540;2022-11-11T15:26:29;21.98;;;12.38;;
54360;SDS011;40258;53.936;27.540;2022-11-11T15:29:29;28.35;;;14.77;;
54360;SDS011;40258;53.936;27.540;2022-11-11T15:32:47;23.75;;;14.18;;
54360;SDS011;40258;53.936;27.540;2022-11-11T15:35:50;23.83;;;14.10;;
54360;SDS011;40258;53.936;27.540;2022-11-11T15:38:45;27.58;;;15.65;;
54360;SDS011;40258;53.936;27.540;2022-11-11T15:41:33;25.35;;;15.95;;
54360;SDS011;40258;53.936;27.540;2022-11-11T15:44:24;27.80;;;14.95;;
54360;SDS011;40258;53.936;27.540;2022-11-11T15:47:15;28.48;;;16.25;;
54360;SDS011;40258;53.936;27.540;2022-11-11T15:50:15;28.83;;;16.65;;
54360;SDS011;40258;53.936;27.540;2022-11-11T15:53:03;31.40;;;17.25;;
54360;SDS011;40258;53.936;27.540;2022-11-11T15:55:51;32.42;;;18.05;;
54360;SDS011;40258;53.936;27.540;2022-11-11T15:58:39;28.98;;;15.75;;
54360;SDS011;40258;53.936;27.540;2022-11-11T16:01:27;29.23;;;17.17;;
54360;SDS011;40258;53.936;27.540;2022-11-11T16:04:16;29.20;;;17.08;;
54360;SDS011;40258;53.936;27.540;2022-11-11T16:07:04;30.67;;;17.77;;
54360;SDS011;40258;53.936;27.540;2022-11-11T16:10:04;30.45;;;17.42;;
54360;SDS011;40258;53.936;27.540;2022-11-11T16:12:55;34.03;;;18.73;;
54360;SDS011;40258;53.936;27.540;2022-11-11T16:15:48;29.73;;;17.92;;
54360;SDS011;40258;53.936;27.540;2022-11-11T16:18:42;32.78;;;17.77;;
54360;SDS011;40258;53.936;27.540;2022-11-11T16:21:34;38.40;;;20.20;;
54360;SDS011;40258;53.936;27.540;2022-11-11T16:24:27;35.17;;;19.40;;
54360;SDS011;40258;53.936;27.540;2022-11-11T16:27:18;40.95;;;20.48;;
54360;SDS011;40258;53.936;27.540;2022-11-11T16:30:13;36.22;;;20.65;;
54360;SDS011;40258;53.936;27.540;2022-11-11T16:33:03;35.33;;;19.65;;
54360;SDS011;40258;53.936;27.540;2022-11-11T16:36:08;33.60;;;19.92;;
54360;SDS011;40258;53.936;27.540;2022-11-11T16:39:11;34.80;;;20.10;;
54360;SDS011;40258;53.936;27.540;2022-11-11T16:42:00;32.38;;;18.55;;
54360;SDS011;40258;53.936;27.540;2022-11-11T16:44:52;36.28;;;20.25;;
54360;SDS011;40258;53.936;27.540;2022-11-11T16:47:44;33.88;;;18.85;;
54360;SDS011;40258;53.936;27.540;2022-11-11T16:50:34;37.33;;;20.23;;
54360;SDS011;40258;53.936;27.540;2022-11-11T16:53:44;37.97;;;19.80;;
54360;SDS011;40258;53.936;27.540;2022-11-11T16:56:36;35.15;;;19.83;;
54360;SDS011;40258;53.936;27.540;2022-11-11T16:59:32;33.17;;;18.38;;
54360;SDS011;40258;53.936;27.540;2022-11-11T17:02:25;32.90;;;18.75;;
54360;SDS011;40258;53.936;27.540;2022-11-11T17:05:14;33.75;;;19.00;;
54360;SDS011;40258;53.936;27.540;2022-11-11T17:08:10;36.63;;;18.25;;
54360;SDS011;40258;53.936;27.540;2022-11-11T17:14:31;31.92;;;18.60;;
54360;SDS011;40258;53.936;27.540;2022-11-11T17:17:21;38.75;;;20.48;;
54360;SDS011;40258;53.936;27.540;2022-11-11T17:20:11;36.17;;;20.13;;
54360;SDS011;40258;53.936;27.540;2022-11-11T17:23:00;35.13;;;20.95;;
54360;SDS011;40258;53.936;27.540;2022-11-11T17:25:52;37.72;;;19.65;;
54360;SDS011;40258;53.936;27.540;2022-11-11T17:28:46;38.88;;;19.00;;
54360;SDS011;40258;53.936;27.540;2022-11-11T17:31:38;35.35;;;19.45;;
54360;SDS011;40258;53.936;27.540;2022-11-11T17:34:26;38.13;;;19.73;;
54360;SDS011;40258;53.936;27.540;2022-11-11T17:40:09;39.92;;;22.55;;